createdAt,value
2023-01-13T00:00:21.532Z,98932.78
2023-01-13T00:01:25.878Z,98937.56
2023-01-13T00:02:27.783Z,98951.75
2023-01-13T00:03:29.625Z,98931.28
2023-01-13T00:04:31.915Z,98942.06
2023-01-13T00:05:33.861Z,98944.72
2023-01-13T00:06:35.628Z,98934.25
2023-01-13T00:07:40.163Z,98944.09
2023-01-13T00:08:42.035Z,98938.13
2023-01-13T00:09:43.814Z,98946.97
2023-01-13T00:10:48.517Z,98944.31
2023-01-13T00:11:50.402Z,98948.00
2023-01-13T00:12:53.541Z,98943.47
2023-01-13T00:13:55.996Z,98941.00
2023-01-13T00:14:57.901Z,98919.66
2023-01-13T00:16:07.719Z,98928.56
2023-01-13T00:17:09.687Z,98939.97
2023-01-13T00:18:11.524Z,98941.81
2023-01-13T00:19:13.302Z,98942.00
2023-01-13T00:20:15.611Z,98945.69
2023-01-13T00:21:23.242Z,98943.22
2023-01-13T00:22:25.012Z,98946.53
2023-01-13T00:23:31.673Z,98943.22
2023-01-13T00:24:33.533Z,98948.34
2023-01-13T00:25:35.314Z,98945.03
2023-01-13T00:26:37.114Z,98944.22
2023-01-13T00:27:39.387Z,98946.91
2023-01-13T00:28:41.649Z,98931.00
2023-01-13T00:29:43.406Z,98935.56
2023-01-13T00:30:45.602Z,98934.72
2023-01-13T00:31:49.200Z,98943.59
2023-01-13T00:32:50.985Z,98940.09
2023-01-13T00:33:53.315Z,98937.78
2023-01-13T00:34:55.181Z,98937.63
2023-01-13T00:35:58.563Z,98940.03
2023-01-13T00:37:00.423Z,98959.81
2023-01-13T00:38:02.310Z,98956.50
2023-01-13T00:39:04.616Z,98954.69
2023-01-13T00:40:07.078Z,98957.34
2023-01-13T00:41:12.016Z,98954.84
2023-01-13T00:42:32.568Z,98961.03
2023-01-13T00:43:36.044Z,98960.44
2023-01-13T00:44:37.956Z,98955.31
2023-01-13T00:45:39.762Z,98953.03
2023-01-13T00:46:41.690Z,98954.03
2023-01-13T00:47:43.491Z,98951.53
2023-01-13T00:48:46.985Z,98953.78
2023-01-13T00:49:50.064Z,98954.44
2023-01-13T00:51:07.202Z,98947.03
2023-01-13T00:52:09.039Z,98954.03
2023-01-13T00:53:10.976Z,98958.53
2023-01-13T00:54:12.829Z,98961.44
2023-01-13T00:55:14.821Z,98963.25
2023-01-13T00:56:39.009Z,98963.47
2023-01-13T00:57:42.242Z,98955.69
2023-01-13T00:58:45.717Z,98956.09
2023-01-13T00:59:49.595Z,98945.69
2023-01-13T01:00:51.747Z,98957.28
2023-01-13T01:01:53.695Z,98966.31
2023-01-13T01:02:55.906Z,98960.16
2023-01-13T01:03:57.705Z,98959.31
2023-01-13T01:05:00.059Z,98963.84
2023-01-13T01:06:08.372Z,98967.53
2023-01-13T01:07:10.122Z,98970.84
2023-01-13T01:08:11.956Z,98966.53
2023-01-13T01:09:15.759Z,98963.22
2023-01-13T01:10:17.635Z,98966.69
2023-01-13T01:11:22.865Z,98966.91
2023-01-13T01:12:24.668Z,98968.56
2023-01-13T01:13:26.502Z,98967.88
2023-01-13T01:14:28.439Z,98968.72
2023-01-13T01:15:30.195Z,98974.25
2023-01-13T01:16:33.767Z,98968.91
2023-01-13T01:17:36.686Z,98971.56
2023-01-13T01:18:41.269Z,98963.56
2023-01-13T01:19:43.104Z,98956.38
2023-01-13T01:20:44.858Z,98957.78
2023-01-13T01:21:46.878Z,98959.22
2023-01-13T01:22:48.638Z,98959.22
2023-01-13T01:23:50.824Z,98962.91
2023-01-13T01:24:52.630Z,98964.78
2023-01-13T01:25:54.426Z,98954.22
2023-01-13T01:26:56.200Z,98962.09
2023-01-13T01:27:57.987Z,98959.59
2023-01-13T01:29:02.267Z,98959.59
2023-01-13T01:30:04.491Z,98960.63
2023-01-13T01:31:12.697Z,98965.16
2023-01-13T01:32:14.495Z,98975.47
2023-01-13T01:33:16.884Z,98974.84
2023-01-13T01:34:18.924Z,98974.00
2023-01-13T01:35:20.665Z,98972.34
2023-01-13T01:36:24.223Z,98977.69
2023-01-13T01:37:26.023Z,98965.34
2023-01-13T01:38:28.777Z,98962.66
2023-01-13T01:39:30.842Z,98963.69
2023-01-13T01:40:32.737Z,98967.38
2023-01-13T01:41:36.057Z,98967.38
2023-01-13T01:42:56.176Z,98962.41
2023-01-13T01:43:59.289Z,98965.16
2023-01-13T01:45:13.672Z,98930.84
2023-01-13T01:46:15.465Z,98953.00
2023-01-13T01:47:18.854Z,98953.38
2023-01-13T01:48:20.904Z,98956.03
2023-01-13T01:49:29.195Z,98955.03
2023-01-13T01:50:31.661Z,98957.69
2023-01-13T01:51:39.004Z,98954.59
2023-01-13T01:52:43.438Z,98958.91
2023-01-13T01:53:48.051Z,98956.88
2023-01-13T01:54:56.007Z,98953.38
2023-01-13T01:55:59.514Z,98958.72
2023-01-13T01:57:01.529Z,98956.03
2023-01-13T01:58:09.297Z,98955.41
2023-01-13T01:59:12.432Z,98962.41
2023-01-13T02:00:14.918Z,98933.78
2023-01-13T02:01:17.216Z,98966.47
2023-01-13T02:02:19.170Z,98956.16
2023-01-13T02:03:21.312Z,98970.81
2023-01-13T02:04:29.622Z,98971.00
2023-01-13T02:05:31.465Z,98979.66
2023-01-13T02:06:33.390Z,98965.44
2023-01-13T02:07:38.470Z,98971.00
2023-01-13T02:08:41.392Z,98974.69
2023-01-13T02:09:43.471Z,98969.34
2023-01-13T02:10:50.677Z,98978.38
2023-01-13T02:12:11.039Z,98965.19
2023-01-13T02:13:13.686Z,98954.03
2023-01-13T02:14:15.991Z,98959.47
2023-01-13T02:15:23.635Z,98955.91
2023-01-13T02:16:25.851Z,98972.03
2023-01-13T02:17:35.749Z,98977.53
2023-01-13T02:19:02.048Z,98975.13
2023-01-13T02:20:28.124Z,98974.56
2023-01-13T02:22:22.324Z,98989.38
2023-01-13T02:23:45.867Z,98988.38
2023-01-13T02:25:41.559Z,98985.53
2023-01-13T02:26:59.233Z,98995.38
2023-01-13T02:28:39.660Z,98992.19
2023-01-13T02:30:27.146Z,98987.34
2023-01-13T02:31:44.759Z,98985.06
2023-01-13T02:32:53.910Z,98994.47
2023-01-13T02:34:09.907Z,98985.72
2023-01-13T02:35:23.174Z,98999.56
2023-01-13T02:36:39.936Z,98996.88
2023-01-13T02:37:44.067Z,98990.25
2023-01-13T02:38:54.302Z,98978.03
2023-01-13T02:40:04.712Z,98977.19
2023-01-13T02:41:35.674Z,98995.97
2023-01-13T02:43:01.937Z,98999.94
2023-01-13T02:44:06.772Z,98995.41
2023-01-13T02:45:32.364Z,98989.88
2023-01-13T02:46:56.825Z,98982.16
2023-01-13T02:48:02.082Z,98987.59
2023-01-13T02:49:08.419Z,98976.81
2023-01-13T02:50:18.061Z,98984.66
2023-01-13T02:51:24.109Z,98982.34
2023-01-13T02:52:37.895Z,98987.50
2023-01-13T02:53:57.520Z,98984.44
2023-01-13T02:55:06.919Z,98986.69
2023-01-13T02:56:10.391Z,98981.88
2023-01-13T02:57:14.863Z,98984.78
2023-01-13T02:58:21.339Z,98989.25
2023-01-13T02:59:26.270Z,98991.56
2023-01-13T03:00:28.811Z,98998.75
2023-01-13T03:01:30.722Z,98997.09
2023-01-13T03:02:32.627Z,99001.59
2023-01-13T03:03:34.646Z,98992.03
2023-01-13T03:05:05.943Z,98997.66
2023-01-13T03:06:44.360Z,98997.63
2023-01-13T03:07:55.772Z,99009.16
2023-01-13T03:09:06.990Z,99011.38
2023-01-13T03:10:29.828Z,99009.09
2023-01-13T03:11:42.881Z,99018.75
2023-01-13T03:12:59.173Z,99010.84
2023-01-13T03:14:24.024Z,99025.13
2023-01-13T03:15:43.618Z,99017.91
2023-01-13T03:17:15.068Z,99024.38
2023-01-13T03:18:24.204Z,99028.44
2023-01-13T03:19:34.641Z,98996.28
2023-01-13T03:20:43.815Z,99031.84
2023-01-13T03:22:09.069Z,99025.28
2023-01-13T03:23:26.623Z,99025.00
2023-01-13T03:24:38.968Z,99013.03
2023-01-13T03:25:50.708Z,99034.69
2023-01-13T03:27:23.875Z,99028.31
2023-01-13T03:28:37.641Z,99032.50
2023-01-13T03:29:45.577Z,99042.53
2023-01-13T03:30:55.382Z,99034.03
2023-01-13T03:32:03.037Z,99043.91
2023-01-13T03:33:10.374Z,99038.28
2023-01-13T03:34:19.690Z,99036.28
2023-01-13T03:35:36.852Z,99042.25
2023-01-13T03:36:40.915Z,99030.72
2023-01-13T03:37:47.053Z,99034.97
2023-01-13T03:38:54.470Z,99031.91
2023-01-13T03:40:02.302Z,99024.91
2023-01-13T03:41:12.006Z,99030.47
2023-01-13T03:42:19.629Z,99023.63
2023-01-13T03:43:50.317Z,99024.00
2023-01-13T03:45:03.819Z,99035.69
2023-01-13T03:46:12.875Z,99045.94
2023-01-13T03:47:51.788Z,99038.56
2023-01-13T03:48:58.390Z,99044.72
2023-01-13T03:50:12.559Z,99044.94
2023-01-13T03:51:19.664Z,99056.97
2023-01-13T03:52:49.178Z,99054.97
2023-01-13T03:53:57.248Z,99055.78
2023-01-13T03:55:10.938Z,99052.47
2023-01-13T03:56:29.240Z,99053.28
2023-01-13T03:57:37.554Z,99056.97
2023-01-13T03:58:44.246Z,99059.00
2023-01-13T03:59:51.119Z,99050.34
2023-01-13T04:01:14.193Z,99055.31
2023-01-13T04:02:42.868Z,99060.22
2023-01-13T04:04:04.320Z,99053.75
2023-01-13T04:05:09.966Z,99055.31
2023-01-13T04:06:17.110Z,99052.84
2023-01-13T04:07:32.991Z,99055.69
2023-01-13T04:08:36.663Z,99060.00
2023-01-13T04:09:44.429Z,99054.03
2023-01-13T04:10:53.966Z,99052.75
2023-01-13T04:12:17.819Z,99053.66
2023-01-13T04:13:23.497Z,99053.00
2023-01-13T04:14:27.990Z,99055.03
2023-01-13T04:15:33.894Z,99054.22
2023-01-13T04:16:37.739Z,99056.06
2023-01-13T04:17:39.630Z,99058.09
2023-01-13T04:18:41.803Z,99069.63
2023-01-13T04:19:43.710Z,99070.63
2023-01-13T04:20:48.705Z,99069.09
2023-01-13T04:21:50.490Z,99064.41
2023-01-13T04:22:52.265Z,99075.09
2023-01-13T04:23:54.089Z,99046.00
2023-01-13T04:24:55.977Z,99068.09
2023-01-13T04:25:57.780Z,99065.63
2023-01-13T04:26:59.732Z,99073.63
2023-01-13T04:28:01.845Z,99068.28
2023-01-13T04:29:03.617Z,99066.44
2023-01-13T04:30:06.805Z,99062.09
2023-01-13T04:31:08.653Z,99062.47
2023-01-13T04:32:10.548Z,99056.69
2023-01-13T04:33:13.691Z,99066.44
2023-01-13T04:34:15.628Z,99074.44
2023-01-13T04:35:17.388Z,99059.16
2023-01-13T04:36:19.728Z,99066.44
2023-01-13T04:37:21.642Z,99069.94
2023-01-13T04:38:23.514Z,99067.28
2023-01-13T04:39:25.288Z,99075.28
2023-01-13T04:40:27.148Z,99064.50
2023-01-13T04:41:49.282Z,99075.47
2023-01-13T04:42:51.076Z,99079.09
2023-01-13T04:43:53.000Z,99075.78
2023-01-13T04:44:54.976Z,99072.28
2023-01-13T04:45:56.821Z,99074.13
2023-01-13T04:46:58.887Z,99067.00
2023-01-13T04:48:00.754Z,99075.28
2023-01-13T04:49:02.543Z,99077.97
2023-01-13T04:50:04.938Z,99084.31
2023-01-13T04:51:06.910Z,99079.78
2023-01-13T04:52:08.747Z,99071.50
2023-01-13T04:53:10.707Z,99080.81
2023-01-13T04:54:12.635Z,99075.84
2023-01-13T04:55:14.558Z,99083.03
2023-01-13T04:56:16.548Z,99091.31
2023-01-13T04:57:18.469Z,99077.84
2023-01-13T04:58:21.032Z,99088.00
2023-01-13T04:59:23.178Z,99091.50
2023-01-13T05:00:25.090Z,99087.81
2023-01-13T05:01:26.995Z,99083.69
2023-01-13T05:02:28.784Z,99079.50
2023-01-13T05:03:30.636Z,99083.47
2023-01-13T05:04:32.495Z,99077.50
2023-01-13T05:05:34.655Z,99088.00
2023-01-13T05:06:36.529Z,99085.50
2023-01-13T05:07:38.623Z,99086.34
2023-01-13T05:08:40.517Z,99087.16
2023-01-13T05:09:42.521Z,99090.84
2023-01-13T05:10:44.295Z,99091.69
2023-01-13T05:12:04.580Z,99091.03
2023-01-13T05:13:24.900Z,99090.31
2023-01-13T05:14:45.978Z,99086.44
2023-01-13T05:16:06.994Z,99081.13
2023-01-13T05:17:10.836Z,99077.44
2023-01-13T05:18:13.234Z,99078.34
2023-01-13T05:19:15.029Z,99086.16
2023-01-13T05:20:16.954Z,99085.50
2023-01-13T05:21:37.456Z,99087.53
2023-01-13T05:22:57.833Z,99093.34
2023-01-13T05:24:18.383Z,99086.78
2023-01-13T05:25:24.587Z,99080.00
2023-01-13T05:26:26.357Z,99081.66
2023-01-13T05:27:28.417Z,99091.69
2023-01-13T05:28:34.247Z,99085.88
2023-01-13T05:29:36.076Z,99092.88
2023-01-13T05:30:42.524Z,99099.41
2023-01-13T05:31:44.304Z,99094.88
2023-01-13T05:32:46.216Z,99094.88
2023-01-13T05:33:47.969Z,99086.97
2023-01-13T05:34:50.093Z,99104.94
2023-01-13T05:35:52.025Z,99093.97
2023-01-13T05:36:53.860Z,99109.44
2023-01-13T05:37:56.455Z,99101.63
2023-01-13T05:38:58.209Z,99109.63
2023-01-13T05:40:18.812Z,99097.81
2023-01-13T05:41:39.292Z,99105.56
2023-01-13T05:42:59.559Z,99066.34
2023-01-13T05:44:01.487Z,99101.53
2023-01-13T05:45:03.505Z,99089.81
2023-01-13T05:46:08.841Z,99100.59
2023-01-13T05:47:10.780Z,99099.59
2023-01-13T05:48:13.479Z,99103.44
2023-01-13T05:49:15.246Z,99097.44
2023-01-13T05:50:17.887Z,99094.34
2023-01-13T05:51:22.528Z,99113.47
2023-01-13T05:52:24.380Z,99110.81
2023-01-13T05:53:26.547Z,99107.31
2023-01-13T05:54:28.314Z,99106.84
2023-01-13T05:55:30.227Z,99113.66
2023-01-13T05:56:31.979Z,99118.00
2023-01-13T05:57:33.775Z,99120.69
2023-01-13T05:58:36.280Z,99113.66
2023-01-13T05:59:38.101Z,99113.66
2023-01-13T06:00:41.795Z,99103.34
2023-01-13T06:01:43.853Z,99096.88
2023-01-13T06:02:45.665Z,99105.00
2023-01-13T06:03:47.443Z,99105.00
2023-01-13T06:04:49.392Z,99105.00
2023-01-13T06:05:53.523Z,99111.38
2023-01-13T06:06:56.048Z,99105.00
2023-01-13T06:07:59.103Z,99105.00
2023-01-13T06:09:00.955Z,99102.06
2023-01-13T06:10:02.880Z,99112.00
2023-01-13T06:11:04.838Z,99114.47
2023-01-13T06:12:06.714Z,99107.31
2023-01-13T06:13:08.727Z,99108.78
2023-01-13T06:14:10.480Z,99116.63
2023-01-13T06:15:12.338Z,99102.25
2023-01-13T06:16:14.220Z,99110.09
2023-01-13T06:17:16.704Z,99109.91
2023-01-13T06:18:18.863Z,99110.56
2023-01-13T06:19:20.714Z,99110.19
2023-01-13T06:20:23.264Z,99106.69
2023-01-13T06:21:25.237Z,99102.16
2023-01-13T06:22:32.427Z,99108.66
2023-01-13T06:23:35.323Z,99115.94
2023-01-13T06:24:37.367Z,99105.91
2023-01-13T06:26:16.265Z,99113.03
2023-01-13T06:27:18.531Z,99117.25
2023-01-13T06:28:20.355Z,99122.59
2023-01-13T06:29:22.124Z,99114.31
2023-01-13T06:30:24.150Z,99125.91
2023-01-13T06:31:28.803Z,99125.53
2023-01-13T06:32:36.616Z,99116.50
2023-01-13T06:33:53.545Z,99124.63
2023-01-13T06:35:00.462Z,99117.91
2023-01-13T06:36:07.123Z,99120.38
2023-01-13T06:37:09.039Z,99128.66
2023-01-13T06:38:15.667Z,99115.59
2023-01-13T06:39:21.859Z,99129.31
2023-01-13T06:40:24.830Z,99135.13
2023-01-13T06:41:47.498Z,99136.63
2023-01-13T06:43:08.803Z,99142.88
2023-01-13T06:44:10.645Z,99143.78
2023-01-13T06:45:12.529Z,99145.63
2023-01-13T06:46:14.429Z,99147.28
2023-01-13T06:47:16.869Z,99143.78
2023-01-13T06:48:22.223Z,99145.25
2023-01-13T06:49:24.007Z,99137.88
2023-01-13T06:50:26.248Z,99141.22
2023-01-13T06:51:28.000Z,99139.34
2023-01-13T06:52:30.583Z,99142.66
2023-01-13T06:53:32.557Z,99143.13
2023-01-13T06:54:34.785Z,99132.97
2023-01-13T06:55:36.865Z,99137.78
2023-01-13T06:56:38.632Z,99139.88
2023-01-13T06:57:50.743Z,99133.50
2023-01-13T06:58:52.494Z,99136.66
2023-01-13T06:59:54.336Z,99101.00
2023-01-13T07:01:00.576Z,99139.31
2023-01-13T07:02:03.219Z,99127.72
2023-01-13T07:03:13.187Z,99139.16
2023-01-13T07:04:15.068Z,99144.16
2023-01-13T07:05:17.809Z,99142.28
2023-01-13T07:06:19.748Z,99133.44
2023-01-13T07:07:21.571Z,99137.97
2023-01-13T07:08:24.834Z,99140.63
2023-01-13T07:09:26.668Z,99140.34
2023-01-13T07:10:28.518Z,99136.94
2023-01-13T07:11:30.350Z,99142.13
2023-01-13T07:12:52.133Z,99144.78
2023-01-13T07:14:12.763Z,99132.44
2023-01-13T07:15:20.497Z,99143.84
2023-01-13T07:16:24.342Z,99146.72
2023-01-13T07:17:26.297Z,99148.75
2023-01-13T07:18:31.830Z,99152.44
2023-01-13T07:19:33.700Z,99150.78
2023-01-13T07:20:35.645Z,99156.94
2023-01-13T07:21:37.499Z,99166.84
2023-01-13T07:22:39.263Z,99156.94
2023-01-13T07:23:41.973Z,99160.66
2023-01-13T07:24:43.829Z,99155.28
2023-01-13T07:25:45.652Z,99159.63
2023-01-13T07:26:47.584Z,99157.53
2023-01-13T07:27:49.769Z,99168.50
2023-01-13T07:28:51.624Z,99137.31
2023-01-13T07:29:53.502Z,99169.50
2023-01-13T07:30:55.580Z,99168.50
2023-01-13T07:31:57.375Z,99169.50
2023-01-13T07:32:59.262Z,99170.31
2023-01-13T07:34:01.086Z,99170.53
2023-01-13T07:35:05.573Z,99171.34
2023-01-13T07:36:07.948Z,99175.88
2023-01-13T07:37:09.834Z,99165.09
2023-01-13T07:38:12.071Z,99174.22
2023-01-13T07:39:14.002Z,99182.25
2023-01-13T07:40:16.031Z,99177.91
2023-01-13T07:41:36.264Z,99184.09
2023-01-13T07:42:57.508Z,99175.88
2023-01-13T07:44:00.491Z,99177.16
2023-01-13T07:45:03.284Z,99180.22
2023-01-13T07:46:06.672Z,99179.56
2023-01-13T07:47:10.533Z,99185.09
2023-01-13T07:48:12.355Z,99197.66
2023-01-13T07:49:14.383Z,99197.00
2023-01-13T07:50:16.337Z,99197.00
2023-01-13T07:51:18.169Z,99189.97
2023-01-13T07:52:19.948Z,99198.00
2023-01-13T07:53:24.919Z,99186.00
2023-01-13T07:54:39.773Z,99189.97
2023-01-13T07:55:43.870Z,99177.44
2023-01-13T07:56:45.747Z,99183.63
2023-01-13T07:57:48.581Z,99189.69
2023-01-13T07:58:51.186Z,99194.31
2023-01-13T07:59:53.007Z,99186.63
2023-01-13T08:00:55.787Z,99161.13
2023-01-13T08:01:57.879Z,99184.34
2023-01-13T08:03:00.696Z,99195.03
2023-01-13T08:04:02.628Z,99185.72
2023-01-13T08:05:04.716Z,99198.34
2023-01-13T08:06:07.201Z,99196.69
2023-01-13T08:07:09.084Z,99207.38
2023-01-13T08:08:11.114Z,99206.56
2023-01-13T08:09:12.967Z,99211.09
2023-01-13T08:10:14.866Z,99210.06
2023-01-13T08:11:16.806Z,99216.25
2023-01-13T08:12:37.248Z,99214.41
2023-01-13T08:13:39.161Z,99217.41
2023-01-13T08:14:41.010Z,99222.09
2023-01-13T08:15:43.336Z,99198.66
2023-01-13T08:16:45.232Z,99213.59
2023-01-13T08:17:47.278Z,99219.75
2023-01-13T08:18:49.112Z,99233.13
2023-01-13T08:19:50.920Z,99225.84
2023-01-13T08:20:54.172Z,99234.16
2023-01-13T08:21:57.288Z,99230.81
2023-01-13T08:23:00.235Z,99238.69
2023-01-13T08:24:02.088Z,99246.88
2023-01-13T08:25:04.837Z,99252.06
2023-01-13T08:26:12.856Z,99248.53
2023-01-13T08:27:14.657Z,99249.38
2023-01-13T08:28:17.604Z,99250.19
2023-01-13T08:29:19.378Z,99248.53
2023-01-13T08:30:21.675Z,99246.06
2023-01-13T08:31:23.476Z,99247.88
2023-01-13T08:32:25.544Z,99249.56
2023-01-13T08:33:27.867Z,99250.56
2023-01-13T08:34:29.732Z,99243.56
2023-01-13T08:35:31.703Z,99244.41
2023-01-13T08:36:33.468Z,99242.75
2023-01-13T08:37:35.448Z,99249.91
2023-01-13T08:38:37.855Z,99256.13
2023-01-13T08:39:39.661Z,99256.94
2023-01-13T08:40:41.578Z,99247.25
2023-01-13T08:41:56.421Z,99245.16
2023-01-13T08:42:59.281Z,99257.78
2023-01-13T08:44:01.099Z,99255.09
2023-01-13T08:45:03.041Z,99253.44
2023-01-13T08:46:05.223Z,99254.25
2023-01-13T08:47:07.024Z,99247.25
2023-01-13T08:48:09.249Z,99243.66
2023-01-13T08:49:11.094Z,99252.59
2023-01-13T08:50:13.055Z,99249.91
2023-01-13T08:51:14.855Z,99252.59
2023-01-13T08:52:16.838Z,99240.97
2023-01-13T08:53:18.940Z,99243.13
2023-01-13T08:54:20.865Z,99248.09
2023-01-13T08:55:23.138Z,99249.75
2023-01-13T08:56:24.944Z,99247.25
2023-01-13T08:57:26.800Z,99241.91
2023-01-13T08:58:28.888Z,99225.31
2023-01-13T08:59:30.901Z,99239.59
2023-01-13T09:00:32.708Z,99241.91
2023-01-13T09:01:34.694Z,99236.53
2023-01-13T09:02:38.506Z,99231.19
2023-01-13T09:03:41.880Z,99228.63
2023-01-13T09:04:44.731Z,99241.91
2023-01-13T09:05:46.538Z,99240.25
2023-01-13T09:06:48.751Z,99241.91
2023-01-13T09:07:50.632Z,99243.56
2023-01-13T09:08:52.482Z,99251.59
2023-01-13T09:09:56.212Z,99241.25
2023-01-13T09:10:58.145Z,99237.13
2023-01-13T09:12:18.318Z,99246.22
2023-01-13T09:13:21.812Z,99245.69
2023-01-13T09:14:25.970Z,99256.38
2023-01-13T09:15:27.978Z,99247.72
2023-01-13T09:16:29.892Z,99253.88
2023-01-13T09:17:31.665Z,99250.56
2023-01-13T09:18:33.479Z,99250.41
2023-01-13T09:19:35.601Z,99237.56
2023-01-13T09:20:37.941Z,99248.53
2023-01-13T09:21:39.745Z,99235.91
2023-01-13T09:22:41.791Z,99250.19
2023-01-13T09:23:43.549Z,99244.84
2023-01-13T09:24:46.206Z,99252.88
2023-01-13T09:25:49.255Z,99248.53
2023-01-13T09:26:51.293Z,99258.22
2023-01-13T09:27:53.166Z,99242.75
2023-01-13T09:28:55.387Z,99258.22
2023-01-13T09:29:57.181Z,99257.41
2023-01-13T09:31:01.757Z,99254.91
2023-01-13T09:32:04.797Z,99247.25
2023-01-13T09:33:25.104Z,99258.22
2023-01-13T09:34:45.642Z,99251.22
2023-01-13T09:35:47.497Z,99258.34
2023-01-13T09:36:49.569Z,99256.56
2023-01-13T09:37:51.377Z,99257.88
2023-01-13T09:38:53.298Z,99263.41
2023-01-13T09:39:55.486Z,99246.88
2023-01-13T09:40:57.328Z,99248.91
2023-01-13T09:42:23.772Z,99254.72
2023-01-13T09:43:54.444Z,99249.50
2023-01-13T09:45:12.018Z,99253.47
2023-01-13T09:46:44.246Z,99254.66
2023-01-13T09:47:51.222Z,99254.28
2023-01-13T09:48:53.270Z,99250.50
2023-01-13T09:50:03.796Z,99255.84
2023-01-13T09:51:10.063Z,99259.53
2023-01-13T09:52:26.946Z,99249.84
2023-01-13T09:53:34.109Z,99245.16
2023-01-13T09:54:46.037Z,99248.84
2023-01-13T09:55:47.835Z,99243.31
2023-01-13T09:56:49.733Z,99242.81
2023-01-13T09:57:51.511Z,99235.25
2023-01-13T09:58:53.431Z,99250.84
2023-01-13T09:59:55.234Z,99237.56
2023-01-13T10:01:15.639Z,99244.84
2023-01-13T10:02:23.150Z,99256.88
2023-01-13T10:03:30.013Z,99240.34
2023-01-13T10:04:31.882Z,99250.69
2023-01-13T10:05:41.339Z,99247.34
2023-01-13T10:06:48.340Z,99253.50
2023-01-13T10:07:54.749Z,99253.50
2023-01-13T10:08:57.733Z,99244.50
2023-01-13T10:10:02.146Z,99253.50
2023-01-13T10:11:25.506Z,99258.88
2023-01-13T10:12:45.900Z,99253.16
2023-01-13T10:13:52.406Z,99257.53
2023-01-13T10:14:57.235Z,99256.88
2023-01-13T10:16:42.215Z,99238.13
2023-01-13T10:18:11.502Z,99249.97
2023-01-13T10:19:25.962Z,99244.44
2023-01-13T10:20:45.114Z,99240.81
2023-01-13T10:22:18.127Z,99248.28
2023-01-13T10:23:19.904Z,99240.09
2023-01-13T10:24:40.172Z,99249.50
2023-01-13T10:25:50.852Z,99244.16
2023-01-13T10:26:57.100Z,99248.84
2023-01-13T10:28:08.644Z,99243.81
2023-01-13T10:29:22.217Z,99239.16
2023-01-13T10:30:31.440Z,99234.34
2023-01-13T10:31:33.378Z,99237.47
2023-01-13T10:32:35.199Z,99235.81
2023-01-13T10:33:36.978Z,99237.66
2023-01-13T10:34:51.249Z,99223.44
2023-01-13T10:36:01.653Z,99226.75
2023-01-13T10:37:09.348Z,99233.13
2023-01-13T10:38:22.878Z,99225.94
2023-01-13T10:39:25.392Z,99232.13
2023-01-13T10:40:27.185Z,99235.81
2023-01-13T10:41:29.070Z,99229.00
2023-01-13T10:42:30.920Z,99221.88
2023-01-13T10:43:32.917Z,99231.66
2023-01-13T10:44:55.451Z,99228.16
2023-01-13T10:46:06.288Z,99222.63
2023-01-13T10:47:29.037Z,99222.09
2023-01-13T10:48:38.638Z,99226.41
2023-01-13T10:49:40.581Z,99227.25
2023-01-13T10:50:42.856Z,99233.63
2023-01-13T10:51:45.244Z,99232.13
2023-01-13T10:52:57.753Z,99227.59
2023-01-13T10:54:13.227Z,99232.13
2023-01-13T10:55:38.665Z,99231.44
2023-01-13T10:56:43.157Z,99224.41
2023-01-13T10:57:44.940Z,99232.78
2023-01-13T10:58:47.122Z,99229.44
2023-01-13T10:59:50.987Z,99220.13
2023-01-13T11:01:02.126Z,99230.44
2023-01-13T11:02:25.313Z,99236.47
2023-01-13T11:03:37.678Z,99230.78
2023-01-13T11:04:45.129Z,99220.13
2023-01-13T11:05:58.941Z,99236.13
2023-01-13T11:07:02.585Z,99236.13
2023-01-13T11:08:05.286Z,99235.47
2023-01-13T11:09:19.742Z,99221.41
2023-01-13T11:10:27.516Z,99230.97
2023-01-13T11:11:43.844Z,99233.47
2023-01-13T11:13:14.513Z,99232.06
2023-01-13T11:14:39.510Z,99240.09
2023-01-13T11:16:16.601Z,99230.84
2023-01-13T11:17:18.353Z,99239.53
2023-01-13T11:18:25.932Z,99234.91
2023-01-13T11:19:31.843Z,99223.66
2023-01-13T11:20:41.289Z,99228.78
2023-01-13T11:22:05.812Z,99229.78
2023-01-13T11:23:16.555Z,99235.94
2023-01-13T11:24:31.058Z,99233.09
2023-01-13T11:25:43.519Z,99236.78
2023-01-13T11:27:08.398Z,99244.16
2023-01-13T11:28:36.243Z,99236.19
2023-01-13T11:29:39.950Z,99234.75
2023-01-13T11:31:07.941Z,99248.78
2023-01-13T11:32:17.878Z,99250.81
2023-01-13T11:33:37.829Z,99235.56
2023-01-13T11:34:42.051Z,99238.81
2023-01-13T11:36:06.382Z,99239.09
2023-01-13T11:37:21.520Z,99249.13
2023-01-13T11:38:47.816Z,99242.56
2023-01-13T11:39:58.128Z,99237.78
2023-01-13T11:41:33.241Z,99237.13
2023-01-13T11:42:54.658Z,99238.06
2023-01-13T11:44:23.547Z,99241.38
2023-01-13T11:45:44.488Z,99224.84
2023-01-13T11:46:50.194Z,99225.06
2023-01-13T11:47:57.240Z,99228.13
2023-01-13T11:49:00.906Z,99223.75
2023-01-13T11:50:04.141Z,99223.81
2023-01-13T11:51:22.983Z,99229.28
2023-01-13T11:52:30.816Z,99231.78
2023-01-13T11:53:44.685Z,99231.78
2023-01-13T11:54:55.323Z,99228.28
2023-01-13T11:56:15.911Z,99220.72
2023-01-13T11:57:32.879Z,99235.13
2023-01-13T11:58:49.639Z,99228.13
2023-01-13T12:00:10.882Z,99233.25
2023-01-13T12:01:34.518Z,99237.59
2023-01-13T12:02:57.170Z,99221.06
2023-01-13T12:04:13.237Z,99231.06
2023-01-13T12:05:38.673Z,99234.75
2023-01-13T12:06:41.988Z,99233.09
2023-01-13T12:08:11.072Z,99225.06
2023-01-13T12:09:41.884Z,99222.38
2023-01-13T12:11:11.988Z,99222.81
2023-01-13T12:12:43.305Z,99223.47
2023-01-13T12:14:16.927Z,99210.09
2023-01-13T12:15:22.267Z,99221.81
2023-01-13T12:16:30.559Z,99212.69
2023-01-13T12:17:41.566Z,99213.88
2023-01-13T12:19:01.919Z,99212.06
2023-01-13T12:20:33.277Z,99211.47
2023-01-13T12:21:50.298Z,99207.78
2023-01-13T12:22:56.870Z,99206.03
2023-01-13T12:24:13.886Z,99211.22
2023-01-13T12:25:27.991Z,99205.00
2023-01-13T12:26:35.816Z,99217.41
2023-01-13T12:27:45.837Z,99216.56
2023-01-13T12:28:56.684Z,99214.06
2023-01-13T12:30:02.436Z,99213.03
2023-01-13T12:31:04.487Z,99217.41
2023-01-13T12:32:16.533Z,99209.56
2023-01-13T12:33:54.818Z,99200.00
2023-01-13T12:35:09.114Z,99198.56
2023-01-13T12:36:32.677Z,99205.31
2023-01-13T12:37:42.909Z,99204.31
2023-01-13T12:38:58.663Z,99209.00
2023-01-13T12:40:22.093Z,99212.69
2023-01-13T12:42:01.030Z,99209.66
2023-01-13T12:43:37.539Z,99210.94
2023-01-13T12:45:25.030Z,99205.00
2023-01-13T12:46:26.788Z,99197.81
2023-01-13T12:47:38.153Z,99193.22
2023-01-13T12:49:00.764Z,99196.28
2023-01-13T12:50:27.084Z,99204.75
2023-01-13T12:51:35.646Z,99201.78
2023-01-13T12:52:46.575Z,99198.94
2023-01-13T12:53:48.776Z,99210.66
2023-01-13T12:54:50.584Z,99187.13
2023-01-13T12:55:53.200Z,99205.00
2023-01-13T12:56:55.311Z,99213.25
2023-01-13T12:58:00.298Z,99213.25
2023-01-13T12:59:17.562Z,99213.72
2023-01-13T13:00:19.855Z,99213.72
2023-01-13T13:01:35.764Z,99210.03
2023-01-13T13:03:12.494Z,99211.09
2023-01-13T13:04:18.496Z,99207.63
2023-01-13T13:05:23.256Z,99204.31
2023-01-13T13:06:31.316Z,99210.03
2023-01-13T13:07:41.851Z,99216.19
2023-01-13T13:08:57.422Z,99206.03
2023-01-13T13:10:17.530Z,99218.31
2023-01-13T13:11:50.077Z,99219.13
2023-01-13T13:13:18.584Z,99210.94
2023-01-13T13:14:55.682Z,99203.81
2023-01-13T13:16:26.456Z,99205.63
2023-01-13T13:17:28.269Z,99206.88
2023-01-13T13:18:30.461Z,99193.22